Aérodrome :







RETROUVEZ-NOUS SUR...

 
LOGIN :

S'inscrire | Disclaimer

   EN    FR    IT 

 









Légende :    VFR   VFR Marginal   IFR   IFR Intensif   IFR Très Intensif
Visi : 
Plafond : 
>= 8 km
>= 3000ft
5 à 8 km
1000 à 3000 ft
1500m à 5 km
500 à 1000 ft
800 à 1500m
200 à 500 ft
< 800m
< 200 ft
Symboles :   Orages  Brouillard  Fortes neiges  Fortes précipitations  Vent > 20 kt






- Altitude de l'aérodrome : 76 ft
- Code IATA : EGS


BIEG - Egilsstaðir

DERNIER METAR :
  • 181600Z 26016G26KT 9999 FEW040 01/M08 Q1015 R04/710195 RMK GAGNHEIDI /////

METARs EXPIRÉS :
  • 181500Z 26017G35KT 9999 FEW040 01/M09 Q1014 R04/710195 RMK GAGNHEIDI /////
  • 181400Z 26015KT 9999 FEW040 00/M09 Q1014 R04/710195 RMK GAGNHEIDI /////

TAF TAF BIEG
Valide du 18 à 15h jusqu'au 19 à 15h UTC


181342Z 1815/1915 19008KT 9999 FEW030 SCT045 TX09/1912Z TNM08/1821Z
BECMG 1902/1904 18020KT
BECMG 1904/1906 17030G40KT -RA SCT025 BKN038 OVC050
BECMG 1907/1909 19020KT
TEMPO 1912/1914 20028G38KT



MET'MAP, la Météo Aéronautique d'un coup d'oeil ! - Copyright ORBIFLY Décembre 2007 - Disclaimer

ORBIFLY MET'MAP TEAM :

Programmation & Développement : Alexandra Zaïnal
Sur une idée originale de : Baudouin d'Aumeries
Assistance à la programmation : Marc-Olivier Méhu
Soutien technique & logistique : Manuel Goepfert

Contact : metmap@orbifly.com




SOURCES & CREDITS :

   NOAA